Time;durP1;ratioP1;P1;durP2;ratioP2;P2;SDS_P1;SDS_P2;PMS_P1;PMS_P2;Temp;Humidity;BMP_temperature;BMP_pressure;BME280_temperature;BME280_humidity;BME280_pressure;Samples;Min_cycle;Max_cycle;Signal;HPM_P1;HPM_P2
2024/01/16 00:01:44;;;;;;;0.30;0.30;;;;;;;;;;6241721;28;20029;-84
2024/01/16 00:04:44;;;;;;;0.30;0.30;;;;;;;;;;6245810;28;20021;-84
2024/01/16 00:07:45;;;;;;;0.30;0.30;;;;;;;;;;6244969;28;20033;-83
2024/01/16 00:10:45;;;;;;;0.30;0.30;;;;;;;;;;6245508;28;20033;-84
2024/01/16 00:13:46;;;;;;;0.30;0.30;;;;;;;;;;6229734;28;20130;-84
2024/01/16 00:16:47;;;;;;;0.20;0.20;;;;;;;;;;6243142;28;20071;-84
2024/01/16 00:19:47;;;;;;;0.30;0.30;;;;;;;;;;6244846;28;20068;-84
2024/01/16 00:22:48;;;;;;;0.30;0.30;;;;;;;;;;6246617;28;20017;-84
2024/01/16 00:25:48;;;;;;;0.30;0.30;;;;;;;;;;6246443;28;20053;-88
2024/01/16 00:28:48;;;;;;;0.30;0.30;;;;;;;;;;6247992;28;21478;-88
2024/01/16 00:31:49;;;;;;;0.30;0.30;;;;;;;;;;6246158;28;20021;-88
2024/01/16 00:34:49;;;;;;;0.27;0.27;;;;;;;;;;6250972;28;20030;-89
2024/01/16 00:37:49;;;;;;;0.23;0.23;;;;;;;;;;6243940;28;20111;-89
2024/01/16 00:40:49;;;;;;;0.20;0.20;;;;;;;;;;6245681;28;20565;-88
2024/01/16 00:43:50;;;;;;;0.20;0.20;;;;;;;;;;6243234;28;20071;-89
2024/01/16 00:46:50;;;;;;;0.30;0.30;;;;;;;;;;6232702;28;20080;-89
2024/01/16 00:49:50;;;;;;;0.27;0.27;;;;;;;;;;6236714;28;20030;-89
2024/01/16 00:52:50;;;;;;;0.30;0.30;;;;;;;;;;6246760;28;20022;-89
2024/01/16 00:55:52;;;;;;;0.30;0.30;;;;;;;;;;6237379;28;20018;-84
2024/01/16 00:58:53;;;;;;;0.20;0.20;;;;;;;;;;6231520;28;20097;-83
2024/01/16 01:01:54;;;;;;;0.20;0.20;;;;;;;;;;6243309;28;20396;-84
2024/01/16 01:04:54;;;;;;;0.20;0.20;;;;;;;;;;6237602;28;20068;-83
2024/01/16 01:07:55;;;;;;;0.30;0.30;;;;;;;;;;6233197;28;20018;-83
2024/01/16 01:10:55;;;;;;;0.27;0.27;;;;;;;;;;6225776;28;20040;-83
2024/01/16 01:13:55;;;;;;;0.20;0.20;;;;;;;;;;6229813;28;20057;-83
2024/01/16 01:16:56;;;;;;;0.20;0.20;;;;;;;;;;6231940;28;20461;-83
2024/01/16 01:19:56;;;;;;;0.20;0.20;;;;;;;;;;6236932;28;20030;-83
2024/01/16 01:22:56;;;;;;;0.33;0.33;;;;;;;;;;6245484;28;20031;-84
2024/01/16 01:25:56;;;;;;;0.27;0.27;;;;;;;;;;6234257;28;20502;-83
2024/01/16 01:28:57;;;;;;;0.23;0.23;;;;;;;;;;6238104;28;20041;-83
2024/01/16 01:31:57;;;;;;;0.20;0.20;;;;;;;;;;6243582;28;20337;-84
2024/01/16 01:34:58;;;;;;;0.20;0.20;;;;;;;;;;6243968;28;20028;-90
2024/01/16 01:37:58;;;;;;;0.30;0.30;;;;;;;;;;6242161;28;20029;-89
2024/01/16 01:40:58;;;;;;;0.20;0.20;;;;;;;;;;6251651;28;20095;-89
2024/01/16 01:43:58;;;;;;;0.30;0.30;;;;;;;;;;6243509;28;20033;-90
2024/01/16 01:46:58;;;;;;;0.30;0.30;;;;;;;;;;6243869;28;20083;-89
2024/01/16 01:49:59;;;;;;;0.20;0.20;;;;;;;;;;6223369;28;20064;-89
2024/01/16 01:52:59;;;;;;;0.30;0.30;;;;;;;;;;6239607;28;20013;-88
2024/01/16 01:56:03;;;;;;;0.20;0.20;;;;;;;;;;6232673;28;20388;-89
2024/01/16 01:59:03;;;;;;;0.30;0.30;;;;;;;;;;6242570;28;20025;-89
2024/01/16 02:02:04;;;;;;;0.30;0.30;;;;;;;;;;6233037;28;20112;-89
2024/01/16 02:05:05;;;;;;;0.30;0.30;;;;;;;;;;6239069;28;20487;-89
2024/01/16 02:08:05;;;;;;;0.30;0.30;;;;;;;;;;6239753;28;20094;-89
2024/01/16 02:11:05;;;;;;;0.20;0.20;;;;;;;;;;6223063;28;20471;-89
2024/01/16 02:14:06;;;;;;;0.40;0.40;;;;;;;;;;6249525;28;20014;-89
2024/01/16 02:17:06;;;;;;;0.30;0.30;;;;;;;;;;6230275;28;20022;-90
2024/01/16 02:20:07;;;;;;;0.20;0.20;;;;;;;;;;6236394;28;20053;-89
2024/01/16 02:23:08;;;;;;;0.30;0.30;;;;;;;;;;6235884;28;20022;-89
2024/01/16 02:26:08;;;;;;;0.20;0.20;;;;;;;;;;6242219;28;20025;-89
2024/01/16 02:29:09;;;;;;;0.20;0.20;;;;;;;;;;6244244;28;20428;-88
2024/01/16 02:32:10;;;;;;;0.30;0.30;;;;;;;;;;6237146;28;20029;-87
2024/01/16 02:35:11;;;;;;;0.30;0.30;;;;;;;;;;6242463;28;20025;-88
2024/01/16 02:38:11;;;;;;;0.30;0.30;;;;;;;;;;6241257;28;20033;-88
2024/01/16 02:41:13;;;;;;;0.30;0.30;;;;;;;;;;6240431;28;20450;-87
2024/01/16 02:44:13;;;;;;;0.28;0.28;;;;;;;;;;6236648;28;20453;-88
2024/01/16 02:47:14;;;;;;;0.30;0.30;;;;;;;;;;6233858;28;20029;-88
2024/01/16 02:50:15;;;;;;;0.20;0.20;;;;;;;;;;6227319;28;20031;-88
2024/01/16 02:53:15;;;;;;;0.30;0.30;;;;;;;;;;6239590;28;20018;-88
2024/01/16 02:56:15;;;;;;;0.20;0.20;;;;;;;;;;6241620;28;20056;-88
2024/01/16 02:59:16;;;;;;;0.20;0.20;;;;;;;;;;6231622;28;20399;-87
2024/01/16 03:02:17;;;;;;;0.20;0.20;;;;;;;;;;6231515;28;20490;-89
2024/01/16 03:05:17;;;;;;;0.30;0.30;;;;;;;;;;6225206;28;20025;-89
2024/01/16 03:08:17;;;;;;;0.30;0.30;;;;;;;;;;6238988;28;20380;-88
2024/01/16 03:11:17;;;;;;;0.20;0.20;;;;;;;;;;6231516;28;20067;-89
2024/01/16 03:14:18;;;;;;;0.30;0.30;;;;;;;;;;6236911;28;20029;-88
2024/01/16 03:17:18;;;;;;;0.30;0.30;;;;;;;;;;6221589;28;20013;-81
2024/01/16 03:20:19;;;;;;;0.30;0.30;;;;;;;;;;6229720;28;20030;-81
2024/01/16 03:23:19;;;;;;;0.30;0.30;;;;;;;;;;6249928;28;20638;-82
2024/01/16 03:26:19;;;;;;;0.30;0.30;;;;;;;;;;6246685;28;20029;-82
2024/01/16 03:29:20;;;;;;;0.30;0.30;;;;;;;;;;6245748;28;20096;-82
2024/01/16 03:32:20;;;;;;;0.30;0.30;;;;;;;;;;6233097;28;20029;-82
2024/01/16 03:35:20;;;;;;;0.30;0.30;;;;;;;;;;6248067;28;20484;-82
2024/01/16 03:38:20;;;;;;;0.20;0.20;;;;;;;;;;6246239;28;20097;-82
2024/01/16 03:41:21;;;;;;;0.30;0.30;;;;;;;;;;6243566;28;20021;-82
2024/01/16 03:44:21;;;;;;;0.30;0.30;;;;;;;;;;6245409;28;20404;-83
2024/01/16 03:47:21;;;;;;;0.30;0.30;;;;;;;;;;6245694;28;20021;-83
2024/01/16 03:50:21;;;;;;;0.30;0.30;;;;;;;;;;6228410;28;20044;-83
2024/01/16 03:53:22;;;;;;;0.30;0.30;;;;;;;;;;6252238;28;20018;-84
2024/01/16 03:56:22;;;;;;;0.30;0.30;;;;;;;;;;6240685;28;20036;-84
2024/01/16 03:59:23;;;;;;;0.20;0.20;;;;;;;;;;6241957;28;20445;-83
2024/01/16 04:02:23;;;;;;;0.20;0.20;;;;;;;;;;6231724;28;20036;-84
2024/01/16 04:05:23;;;;;;;0.20;0.20;;;;;;;;;;6245084;28;20018;-84
2024/01/16 04:08:23;;;;;;;0.30;0.30;;;;;;;;;;6243625;28;20021;-84
2024/01/16 04:11:24;;;;;;;0.20;0.20;;;;;;;;;;6242519;28;20475;-83
2024/01/16 04:14:24;;;;;;;0.30;0.30;;;;;;;;;;6234114;28;20048;-83
2024/01/16 04:17:24;;;;;;;0.30;0.30;;;;;;;;;;6235538;28;20018;-82
2024/01/16 04:20:24;;;;;;;0.30;0.30;;;;;;;;;;6251456;28;20498;-83
2024/01/16 04:23:24;;;;;;;0.30;0.30;;;;;;;;;;6249385;28;20495;-83
2024/01/16 04:26:25;;;;;;;0.20;0.20;;;;;;;;;;6242909;28;20063;-84
2024/01/16 04:29:25;;;;;;;0.20;0.20;;;;;;;;;;6225525;28;20042;-84
2024/01/16 04:32:25;;;;;;;0.30;0.30;;;;;;;;;;6235468;28;20069;-83
2024/01/16 04:35:25;;;;;;;0.20;0.20;;;;;;;;;;6237670;28;20070;-83
2024/01/16 04:38:26;;;;;;;0.20;0.20;;;;;;;;;;6243321;28;20025;-83
2024/01/16 04:41:26;;;;;;;0.30;0.30;;;;;;;;;;6244195;28;20029;-82
2024/01/16 04:44:26;;;;;;;0.20;0.20;;;;;;;;;;6240471;28;20029;-83
2024/01/16 04:47:26;;;;;;;0.20;0.20;;;;;;;;;;6241512;28;20032;-85
2024/01/16 04:50:31;;;;;;;0.20;0.20;;;;;;;;;;6245764;28;20025;-85
2024/01/16 04:53:32;;;;;;;0.30;0.30;;;;;;;;;;6238221;28;20538;-86
2024/01/16 04:56:32;;;;;;;0.30;0.30;;;;;;;;;;6241101;28;20025;-82
2024/01/16 04:59:32;;;;;;;0.20;0.20;;;;;;;;;;6240186;28;20025;-83
2024/01/16 05:02:33;;;;;;;0.30;0.30;;;;;;;;;;6244283;28;20068;-82
2024/01/16 05:05:33;;;;;;;0.30;0.30;;;;;;;;;;6238202;28;20473;-85
2024/01/16 05:08:34;;;;;;;0.20;0.20;;;;;;;;;;6242210;28;20272;-85
2024/01/16 05:11:34;;;;;;;0.30;0.30;;;;;;;;;;6239879;28;20030;-84
2024/01/16 05:14:34;;;;;;;0.20;0.20;;;;;;;;;;6236380;28;20439;-85
2024/01/16 05:17:35;;;;;;;0.20;0.20;;;;;;;;;;6224161;28;20022;-85
2024/01/16 05:20:35;;;;;;;0.37;0.37;;;;;;;;;;6242362;28;20075;-85
2024/01/16 05:23:35;;;;;;;0.20;0.20;;;;;;;;;;6242464;28;20094;-82
2024/01/16 05:26:36;;;;;;;0.30;0.30;;;;;;;;;;6233872;28;20104;-82
2024/01/16 05:29:37;;;;;;;0.30;0.30;;;;;;;;;;6239743;28;20412;-82
2024/01/16 05:32:39;;;;;;;0.20;0.20;;;;;;;;;;6219556;28;20499;-83
2024/01/16 05:35:39;;;;;;;0.30;0.30;;;;;;;;;;6238131;28;20025;-83
2024/01/16 05:38:39;;;;;;;0.20;0.20;;;;;;;;;;6233627;28;20032;-82
2024/01/16 05:41:40;;;;;;;0.30;0.30;;;;;;;;;;6233947;28;20032;-82
2024/01/16 05:44:40;;;;;;;0.20;0.20;;;;;;;;;;6236141;28;20465;-83
2024/01/16 05:47:40;;;;;;;0.23;0.23;;;;;;;;;;6238316;28;20029;-82
2024/01/16 05:50:41;;;;;;;0.30;0.30;;;;;;;;;;6230020;28;20025;-82
2024/01/16 05:53:42;;;;;;;0.20;0.20;;;;;;;;;;6241623;28;20029;-83
2024/01/16 05:56:42;;;;;;;0.30;0.30;;;;;;;;;;6232400;28;20442;-83
2024/01/16 05:59:42;;;;;;;0.30;0.30;;;;;;;;;;6228777;28;20091;-83
2024/01/16 06:02:43;;;;;;;0.30;0.30;;;;;;;;;;6228667;28;20022;-83
2024/01/16 06:05:43;;;;;;;0.20;0.20;;;;;;;;;;6234663;28;20451;-83
2024/01/16 06:08:44;;;;;;;0.30;0.30;;;;;;;;;;6240919;28;20021;-83
2024/01/16 06:11:44;;;;;;;0.30;0.30;;;;;;;;;;6239046;28;20033;-83
2024/01/16 06:14:44;;;;;;;0.30;0.30;;;;;;;;;;6237951;28;20024;-85
2024/01/16 06:17:45;;;;;;;0.30;0.30;;;;;;;;;;6233981;28;20020;-84
2024/01/16 06:20:45;;;;;;;0.30;0.30;;;;;;;;;;6253558;28;20060;-85
2024/01/16 06:23:45;;;;;;;0.30;0.30;;;;;;;;;;6245268;28;20017;-84
2024/01/16 06:26:46;;;;;;;0.30;0.30;;;;;;;;;;6238727;28;20378;-84
2024/01/16 06:29:46;;;;;;;0.40;0.40;;;;;;;;;;6241961;28;20455;-85
2024/01/16 06:32:48;;;;;;;0.30;0.30;;;;;;;;;;6226256;28;20343;-85
2024/01/16 06:35:49;;;;;;;0.30;0.30;;;;;;;;;;6231761;28;20480;-85
2024/01/16 06:38:49;;;;;;;0.20;0.20;;;;;;;;;;6232204;28;20044;-85
2024/01/16 06:41:50;;;;;;;0.30;0.30;;;;;;;;;;6230914;28;20033;-84
2024/01/16 06:44:50;;;;;;;0.30;0.30;;;;;;;;;;6219966;28;20075;-84
2024/01/16 06:47:51;;;;;;;0.30;0.30;;;;;;;;;;6226805;28;20057;-85
2024/01/16 06:50:52;;;;;;;0.30;0.30;;;;;;;;;;6238161;28;20116;-85
2024/01/16 06:53:52;;;;;;;0.30;0.30;;;;;;;;;;6245333;28;20450;-85
2024/01/16 06:56:52;;;;;;;0.27;0.27;;;;;;;;;;6234899;28;20021;-85
2024/01/16 06:59:53;;;;;;;0.30;0.30;;;;;;;;;;6236330;28;20465;-84
2024/01/16 07:02:54;;;;;;;0.30;0.30;;;;;;;;;;6245923;28;20502;-84
2024/01/16 07:05:54;;;;;;;0.25;0.25;;;;;;;;;;6246139;28;20033;-84
2024/01/16 07:08:55;;;;;;;0.20;0.20;;;;;;;;;;6235948;28;20038;-84
2024/01/16 07:11:55;;;;;;;0.20;0.20;;;;;;;;;;6243149;28;20018;-84
2024/01/16 07:14:55;;;;;;;0.30;0.30;;;;;;;;;;6245071;28;20434;-85
2024/01/16 07:17:55;;;;;;;0.33;0.33;;;;;;;;;;6236008;28;20427;-85
2024/01/16 07:20:56;;;;;;;0.30;0.30;;;;;;;;;;6240489;28;20064;-85
2024/01/16 07:23:56;;;;;;;0.30;0.30;;;;;;;;;;6240313;28;20079;-85
2024/01/16 07:26:57;;;;;;;0.40;0.40;;;;;;;;;;6232825;28;20025;-85
2024/01/16 07:29:57;;;;;;;0.20;0.20;;;;;;;;;;6243322;28;20067;-86
2024/01/16 07:32:57;;;;;;;0.30;0.30;;;;;;;;;;6241405;28;20060;-86
2024/01/16 07:35:57;;;;;;;0.30;0.30;;;;;;;;;;6240665;28;20104;-85
2024/01/16 07:38:57;;;;;;;0.30;0.30;;;;;;;;;;6237338;28;20010;-86
2024/01/16 07:41:58;;;;;;;0.30;0.30;;;;;;;;;;6241517;28;20057;-85
2024/01/16 07:44:58;;;;;;;0.30;0.30;;;;;;;;;;6237740;28;20116;-84
2024/01/16 07:47:58;;;;;;;0.30;0.30;;;;;;;;;;6244450;28;20079;-85
2024/01/16 07:50:58;;;;;;;0.30;0.30;;;;;;;;;;6242472;28;20115;-85
2024/01/16 07:54:09;;;;;;;0.30;0.30;;;;;;;;;;6249050;28;20105;-85
2024/01/16 07:57:09;;;;;;;0.25;0.25;;;;;;;;;;6244494;28;20052;-84
2024/01/16 08:00:13;;;;;;;0.20;0.20;;;;;;;;;;6245824;28;20041;-84
2024/01/16 08:03:14;;;;;;;0.20;0.20;;;;;;;;;;6239744;28;20030;-84
2024/01/16 08:06:14;;;;;;;0.20;0.20;;;;;;;;;;6244147;28;20052;-85
2024/01/16 08:09:15;;;;;;;0.20;0.20;;;;;;;;;;6242448;28;20025;-85
2024/01/16 08:12:15;;;;;;;0.20;0.20;;;;;;;;;;6242584;28;20418;-86
2024/01/16 08:15:15;;;;;;;0.20;0.20;;;;;;;;;;6245072;28;20021;-85
2024/01/16 08:18:17;;;;;;;0.30;0.30;;;;;;;;;;6243085;28;20017;-85
2024/01/16 08:21:17;;;;;;;0.30;0.30;;;;;;;;;;6244579;28;20021;-84
2024/01/16 08:24:18;;;;;;;0.20;0.20;;;;;;;;;;6237056;28;20072;-84
2024/01/16 08:27:19;;;;;;;0.20;0.20;;;;;;;;;;6235919;28;20026;-84
2024/01/16 08:30:19;;;;;;;0.20;0.20;;;;;;;;;;6225494;28;20082;-83
2024/01/16 08:33:19;;;;;;;0.20;0.20;;;;;;;;;;6244739;28;20438;-84
2024/01/16 08:36:19;;;;;;;0.30;0.30;;;;;;;;;;6230139;28;20052;-84
2024/01/16 08:39:20;;;;;;;0.30;0.30;;;;;;;;;;6233021;28;20121;-83
2024/01/16 08:42:20;;;;;;;0.20;0.20;;;;;;;;;;6241928;28;20071;-83
2024/01/16 08:45:20;;;;;;;0.20;0.20;;;;;;;;;;6222350;28;20029;-84
2024/01/16 08:48:21;;;;;;;0.20;0.20;;;;;;;;;;6232143;28;20529;-84
2024/01/16 08:51:21;;;;;;;0.20;0.20;;;;;;;;;;6237005;28;20036;-84
2024/01/16 08:54:22;;;;;;;0.20;0.20;;;;;;;;;;6235803;28;20561;-84
2024/01/16 08:57:23;;;;;;;0.30;0.30;;;;;;;;;;6242263;28;20013;-85
2024/01/16 09:00:23;;;;;;;0.20;0.20;;;;;;;;;;6240291;28;20392;-84
2024/01/16 09:03:23;;;;;;;0.20;0.20;;;;;;;;;;6232110;28;20452;-84
2024/01/16 09:06:23;;;;;;;0.20;0.20;;;;;;;;;;6218432;28;20030;-84
2024/01/16 09:09:23;;;;;;;0.20;0.20;;;;;;;;;;6234287;28;20025;-84
2024/01/16 09:12:24;;;;;;;0.20;0.20;;;;;;;;;;6224127;28;20032;-83
2024/01/16 09:15:24;;;;;;;0.20;0.20;;;;;;;;;;6241579;28;20025;-85
2024/01/16 09:18:24;;;;;;;0.20;0.20;;;;;;;;;;6228466;28;20021;-84
2024/01/16 09:21:25;;;;;;;0.20;0.20;;;;;;;;;;6230847;28;20017;-84
2024/01/16 09:24:25;;;;;;;0.20;0.20;;;;;;;;;;6242694;28;20025;-83
2024/01/16 09:27:25;;;;;;;0.20;0.20;;;;;;;;;;6231982;28;20084;-85
2024/01/16 09:30:25;;;;;;;0.23;0.23;;;;;;;;;;6236209;28;20045;-85
2024/01/16 09:33:26;;;;;;;0.20;0.20;;;;;;;;;;6236948;28;20022;-84
2024/01/16 09:36:26;;;;;;;0.30;0.30;;;;;;;;;;6231090;28;20737;-84
2024/01/16 09:39:26;;;;;;;0.20;0.20;;;;;;;;;;6240150;28;20033;-84
2024/01/16 09:42:27;;;;;;;0.30;0.30;;;;;;;;;;6233470;28;20029;-83
2024/01/16 09:45:29;;;;;;;0.20;0.20;;;;;;;;;;6242678;28;20088;-82
2024/01/16 09:48:30;;;;;;;0.20;0.20;;;;;;;;;;6235300;28;20393;-83
2024/01/16 09:51:30;;;;;;;0.30;0.30;;;;;;;;;;6232602;28;20064;-85
2024/01/16 09:54:30;;;;;;;0.20;0.20;;;;;;;;;;6220526;28;20365;-84
2024/01/16 09:57:31;;;;;;;0.20;0.20;;;;;;;;;;6228167;28;20392;-84
2024/01/16 10:00:32;;;;;;;0.23;0.23;;;;;;;;;;6231076;28;20435;-84
2024/01/16 10:03:34;;;;;;;0.30;0.30;;;;;;;;;;6239751;28;20032;-83
2024/01/16 10:06:34;;;;;;;0.20;0.20;;;;;;;;;;6235982;28;20079;-84
2024/01/16 10:09:34;;;;;;;0.20;0.20;;;;;;;;;;6231566;28;20033;-82
2024/01/16 10:12:35;;;;;;;0.20;0.20;;;;;;;;;;6234843;28;20060;-82
2024/01/16 10:15:35;;;;;;;0.20;0.20;;;;;;;;;;6237879;28;20021;-83
2024/01/16 10:18:37;;;;;;;0.30;0.30;;;;;;;;;;6241503;28;20025;-83
2024/01/16 10:21:38;;;;;;;0.20;0.20;;;;;;;;;;6241720;28;20395;-83
2024/01/16 10:24:38;;;;;;;0.23;0.23;;;;;;;;;;6220261;28;20030;-83
2024/01/16 10:27:41;;;;;;;0.20;0.20;;;;;;;;;;6233020;28;20021;-83
2024/01/16 10:30:42;;;;;;;0.20;0.20;;;;;;;;;;6221238;28;20061;-84
2024/01/16 10:33:42;;;;;;;0.20;0.20;;;;;;;;;;6241173;28;20361;-84
2024/01/16 10:36:42;;;;;;;0.20;0.20;;;;;;;;;;6234026;28;20376;-84
2024/01/16 10:39:49;;;;;;;0.20;0.20;;;;;;;;;;6227999;28;20018;-84
2024/01/16 10:42:59;;;;;;;0.30;0.30;;;;;;;;;;6231582;28;20038;-84
2024/01/16 10:46:11;;;;;;;0.30;0.30;;;;;;;;;;6239471;28;20593;-84
2024/01/16 10:49:11;;;;;;;0.20;0.20;;;;;;;;;;6233770;28;20038;-84
2024/01/16 10:52:12;;;;;;;0.20;0.20;;;;;;;;;;6224250;28;20033;-84
2024/01/16 10:55:15;;;;;;;0.20;0.20;;;;;;;;;;6241066;28;20032;-81
2024/01/16 10:58:16;;;;;;;0.20;0.20;;;;;;;;;;6250560;28;20037;-82
2024/01/16 11:01:17;;;;;;;0.20;0.20;;;;;;;;;;6241206;28;20531;-82
2024/01/16 11:04:18;;;;;;;0.20;0.20;;;;;;;;;;6260839;28;20102;-82
2024/01/16 11:07:18;;;;;;;0.20;0.20;;;;;;;;;;6230724;28;20084;-84
2024/01/16 11:10:19;;;;;;;0.20;0.20;;;;;;;;;;6223327;28;20030;-84
2024/01/16 11:13:20;;;;;;;0.20;0.20;;;;;;;;;;6238629;28;20026;-84
2024/01/16 11:16:21;;;;;;;0.20;0.20;;;;;;;;;;6238991;28;20025;-84
2024/01/16 11:19:21;;;;;;;0.20;0.20;;;;;;;;;;6232215;28;20030;-84
2024/01/16 11:22:22;;;;;;;0.20;0.20;;;;;;;;;;6220953;28;20010;-82
2024/01/16 11:25:30;;;;;;;0.20;0.20;;;;;;;;;;6234639;28;20467;-82
2024/01/16 11:28:30;;;;;;;0.20;0.20;;;;;;;;;;6228584;28;20088;-82
2024/01/16 11:31:31;;;;;;;0.20;0.20;;;;;;;;;;6235100;28;20041;-82
2024/01/16 11:34:40;;;;;;;0.20;0.20;;;;;;;;;;6241839;28;20026;-82
2024/01/16 11:37:43;;;;;;;0.20;0.20;;;;;;;;;;6230421;28;20045;-82
2024/01/16 11:40:44;;;;;;;0.20;0.20;;;;;;;;;;6233300;28;20047;-82
2024/01/16 11:43:44;;;;;;;0.20;0.20;;;;;;;;;;6236470;28;20022;-81
2024/01/16 11:47:00;;;;;;;0.20;0.20;;;;;;;;;;6237224;28;20024;-82
2024/01/16 11:50:10;;;;;;;0.20;0.20;;;;;;;;;;6248792;28;20048;-82
2024/01/16 11:53:11;;;;;;;0.20;0.20;;;;;;;;;;6233858;28;20022;-82
2024/01/16 11:56:20;;;;;;;0.20;0.20;;;;;;;;;;6239844;28;20475;-81
2024/01/16 11:59:39;;;;;;;0.20;0.20;;;;;;;;;;6249038;28;20037;-81
2024/01/16 12:02:45;;;;;;;0.20;0.20;;;;;;;;;;6242780;28;20017;-81
2024/01/16 12:05:55;;;;;;;0.20;0.20;;;;;;;;;;6235704;28;20152;-83
2024/01/16 12:09:10;;;;;;;0.20;0.20;;;;;;;;;;6231541;28;20547;-83
2024/01/16 12:12:12;;;;;;;0.20;0.20;;;;;;;;;;6236639;28;20036;-83
2024/01/16 12:15:18;;;;;;;0.20;0.20;;;;;;;;;;6225034;28;20584;-83
2024/01/16 12:18:18;;;;;;;0.20;0.20;;;;;;;;;;6236290;28;20476;-83
2024/01/16 12:21:19;;;;;;;0.20;0.20;;;;;;;;;;6227928;28;20032;-83
2024/01/16 12:24:19;;;;;;;0.20;0.20;;;;;;;;;;6244829;28;20029;-83
2024/01/16 12:27:20;;;;;;;0.20;0.20;;;;;;;;;;6230931;28;20030;-83
2024/01/16 12:30:20;;;;;;;0.20;0.20;;;;;;;;;;6238726;28;20099;-83
2024/01/16 12:33:23;;;;;;;0.20;0.20;;;;;;;;;;6242531;28;20022;-82
2024/01/16 12:36:23;;;;;;;0.20;0.20;;;;;;;;;;6243564;28;20013;-82
2024/01/16 12:39:24;;;;;;;0.20;0.20;;;;;;;;;;6238839;28;20029;-82
2024/01/16 12:42:24;;;;;;;0.20;0.20;;;;;;;;;;6231957;28;20486;-82
2024/01/16 12:45:25;;;;;;;0.20;0.20;;;;;;;;;;6222828;28;20021;-82
2024/01/16 12:48:26;;;;;;;0.20;0.20;;;;;;;;;;6236188;28;20446;-83
2024/01/16 12:51:26;;;;;;;0.20;0.20;;;;;;;;;;6249986;28;20025;-83
2024/01/16 12:54:26;;;;;;;0.20;0.20;;;;;;;;;;6223529;28;20064;-83
2024/01/16 12:57:26;;;;;;;0.20;0.20;;;;;;;;;;6237205;28;20419;-83
2024/01/16 13:00:27;;;;;;;0.20;0.20;;;;;;;;;;6232721;28;20034;-83
2024/01/16 13:03:27;;;;;;;0.20;0.20;;;;;;;;;;6231172;28;20021;-82
2024/01/16 13:06:27;;;;;;;0.20;0.20;;;;;;;;;;6241461;28;20037;-82
2024/01/16 13:09:27;;;;;;;0.20;0.20;;;;;;;;;;6241612;28;20040;-83
2024/01/16 13:12:33;;;;;;;0.20;0.20;;;;;;;;;;6241470;28;20128;-82
2024/01/16 13:15:33;;;;;;;0.20;0.20;;;;;;;;;;6226000;28;20101;-81
2024/01/16 13:18:34;;;;;;;0.20;0.20;;;;;;;;;;6258533;28;20021;-81
2024/01/16 13:21:34;;;;;;;0.20;0.20;;;;;;;;;;6264891;28;20072;-81
2024/01/16 13:24:35;;;;;;;0.20;0.20;;;;;;;;;;6255788;28;20040;-81
2024/01/16 13:27:36;;;;;;;0.20;0.20;;;;;;;;;;6242854;28;20041;-81
2024/01/16 13:30:36;;;;;;;0.20;0.20;;;;;;;;;;6239160;28;20489;-81
2024/01/16 13:33:37;;;;;;;0.20;0.20;;;;;;;;;;6237209;28;20018;-81
2024/01/16 13:36:37;;;;;;;0.20;0.20;;;;;;;;;;6234278;28;20109;-82
2024/01/16 13:39:38;;;;;;;0.20;0.20;;;;;;;;;;6233467;28;20044;-83
2024/01/16 13:42:38;;;;;;;0.23;0.23;;;;;;;;;;6235304;28;20026;-81
2024/01/16 13:45:39;;;;;;;0.20;0.20;;;;;;;;;;6244482;28;20025;-81
2024/01/16 13:48:40;;;;;;;0.20;0.20;;;;;;;;;;6240651;28;20127;-82
2024/01/16 13:51:43;;;;;;;0.20;0.20;;;;;;;;;;6243320;28;20060;-81
2024/01/16 13:54:43;;;;;;;0.20;0.20;;;;;;;;;;6228758;28;20020;-82
2024/01/16 13:57:44;;;;;;;0.20;0.20;;;;;;;;;;6226974;28;20026;-82
2024/01/16 14:00:44;;;;;;;0.20;0.20;;;;;;;;;;6237400;28;20025;-82
2024/01/16 14:03:46;;;;;;;0.20;0.20;;;;;;;;;;6228979;28;20112;-82
2024/01/16 14:06:47;;;;;;;0.25;0.25;;;;;;;;;;6219574;28;20057;-82
2024/01/16 14:09:47;;;;;;;0.20;0.20;;;;;;;;;;6232842;28;20029;-82
2024/01/16 14:12:49;;;;;;;0.20;0.20;;;;;;;;;;6238048;28;20040;-82
2024/01/16 14:15:50;;;;;;;0.20;0.20;;;;;;;;;;6242068;28;20060;-82
2024/01/16 14:18:51;;;;;;;0.20;0.20;;;;;;;;;;6234878;28;20052;-82
2024/01/16 14:21:51;;;;;;;0.30;0.30;;;;;;;;;;6238280;28;20498;-82
2024/01/16 14:24:51;;;;;;;0.30;0.30;;;;;;;;;;6239938;28;20476;-80
2024/01/16 14:28:04;;;;;;;0.20;0.20;;;;;;;;;;6226958;28;20050;-82
2024/01/16 14:31:04;;;;;;;0.30;0.30;;;;;;;;;;6234007;28;20052;-82
2024/01/16 14:34:05;;;;;;;0.20;0.20;;;;;;;;;;6235961;28;20030;-82
2024/01/16 14:37:05;;;;;;;0.30;0.30;;;;;;;;;;6242035;28;20021;-81
2024/01/16 14:40:25;;;;;;;0.30;0.30;;;;;;;;;;6235835;28;20041;-81
2024/01/16 14:43:25;;;;;;;0.20;0.20;;;;;;;;;;6239873;28;20483;-82
2024/01/16 14:46:25;;;;;;;0.30;0.30;;;;;;;;;;6242427;28;20022;-81
2024/01/16 14:49:31;;;;;;;0.30;0.30;;;;;;;;;;6246916;28;20044;-82
2024/01/16 14:52:34;;;;;;;0.30;0.30;;;;;;;;;;6251175;28;20117;-82
2024/01/16 14:55:34;;;;;;;0.30;0.30;;;;;;;;;;6252246;28;20032;-81
2024/01/16 14:58:34;;;;;;;0.30;0.30;;;;;;;;;;6242614;28;20013;-81
2024/01/16 15:01:35;;;;;;;0.20;0.20;;;;;;;;;;6241891;28;20017;-80
2024/01/16 15:04:35;;;;;;;0.30;0.30;;;;;;;;;;6241105;28;20071;-81
2024/01/16 15:07:37;;;;;;;0.30;0.30;;;;;;;;;;6242465;28;20014;-83
2024/01/16 15:10:37;;;;;;;;;;;;;;;;;;6253735;28;20022;-83
2024/01/16 15:13:37;;;;;;;0.30;0.30;;;;;;;;;;6260430;28;19913;-82
2024/01/16 15:16:37;;;;;;;0.30;0.30;;;;;;;;;;6252981;28;20041;-82
2024/01/16 15:19:38;;;;;;;0.30;0.30;;;;;;;;;;6259164;28;20033;-81
2024/01/16 15:22:39;;;;;;;0.30;0.30;;;;;;;;;;6257131;28;20073;-83
2024/01/16 15:25:40;;;;;;;;;;;;;;;;;;6254172;28;20009;-81
2024/01/16 15:28:40;;;;;;;0.30;0.30;;;;;;;;;;6240408;28;19909;-82
2024/01/16 15:31:40;;;;;;;0.30;0.30;;;;;;;;;;6250450;28;20878;-81
2024/01/16 15:34:40;;;;;;;0.20;0.20;;;;;;;;;;6234857;28;20025;-81
2024/01/16 15:37:41;;;;;;;0.20;0.20;;;;;;;;;;6241650;28;20017;-81
2024/01/16 15:40:43;;;;;;;0.30;0.30;;;;;;;;;;6223986;28;20393;-81
2024/01/16 15:43:43;;;;;;;0.30;0.30;;;;;;;;;;6241141;28;20014;-82
2024/01/16 15:46:56;;;;;;;0.30;0.30;;;;;;;;;;6235597;28;20104;-81
2024/01/16 15:49:56;;;;;;;0.20;0.20;;;;;;;;;;6244687;28;20033;-81
2024/01/16 15:52:57;;;;;;;0.30;0.30;;;;;;;;;;6241331;28;20026;-82
2024/01/16 15:55:58;;;;;;;0.30;0.30;;;;;;;;;;6235986;28;20100;-82
2024/01/16 15:58:58;;;;;;;0.30;0.30;;;;;;;;;;6237264;28;20470;-82
2024/01/16 16:01:58;;;;;;;0.30;0.30;;;;;;;;;;6229182;28;20045;-82
2024/01/16 16:04:58;;;;;;;0.30;0.30;;;;;;;;;;6234017;28;20095;-83
2024/01/16 16:07:59;;;;;;;0.30;0.30;;;;;;;;;;6228106;28;20480;-83
2024/01/16 16:10:59;;;;;;;0.30;0.30;;;;;;;;;;6237709;28;20025;-82
2024/01/16 16:13:59;;;;;;;0.27;0.27;;;;;;;;;;6231238;28;20026;-82
2024/01/16 16:17:02;;;;;;;0.30;0.30;;;;;;;;;;6240401;28;20026;-82
2024/01/16 16:20:03;;;;;;;0.30;0.30;;;;;;;;;;6243491;28;20025;-82
2024/01/16 16:23:03;;;;;;;0.20;0.20;;;;;;;;;;6239686;28;20443;-82
2024/01/16 16:26:05;;;;;;;0.30;0.30;;;;;;;;;;6252612;28;20025;-84
2024/01/16 16:29:05;;;;;;;;;;;;;;;;;;6265291;28;20089;-83
2024/01/16 16:32:06;;;;;;;0.30;0.30;;;;;;;;;;6256748;28;19919;-83
2024/01/16 16:35:06;;;;;;;0.27;0.27;;;;;;;;;;6242254;28;20029;-83
2024/01/16 16:38:06;;;;;;;0.30;0.30;;;;;;;;;;6243098;28;20476;-83
2024/01/16 16:41:07;;;;;;;0.30;0.30;;;;;;;;;;6240794;28;20013;-83
2024/01/16 16:44:07;;;;;;;0.30;0.30;;;;;;;;;;6240383;28;20032;-83
2024/01/16 16:47:08;;;;;;;0.30;0.30;;;;;;;;;;6236972;28;20014;-84
2024/01/16 16:50:09;;;;;;;0.30;0.30;;;;;;;;;;6232615;28;20380;-83
2024/01/16 16:53:09;;;;;;;0.30;0.30;;;;;;;;;;6235295;28;20022;-83
2024/01/16 16:56:12;;;;;;;0.30;0.30;;;;;;;;;;6244425;28;20029;-83
2024/01/16 16:59:12;;;;;;;0.30;0.30;;;;;;;;;;6246335;28;20537;-83
2024/01/16 17:02:13;;;;;;;0.30;0.30;;;;;;;;;;6239377;28;20025;-83
2024/01/16 17:05:14;;;;;;;0.22;0.22;;;;;;;;;;6234394;28;20105;-83
2024/01/16 17:08:14;;;;;;;0.30;0.30;;;;;;;;;;6240885;28;20052;-86
2024/01/16 17:11:14;;;;;;;0.30;0.30;;;;;;;;;;6239111;28;20052;-85
2024/01/16 17:14:15;;;;;;;0.30;0.30;;;;;;;;;;6233851;28;20029;-85
2024/01/16 17:17:15;;;;;;;0.30;0.30;;;;;;;;;;6241969;28;20456;-85
2024/01/16 17:20:15;;;;;;;0.30;0.30;;;;;;;;;;6254048;28;20060;-85
2024/01/16 17:23:15;;;;;;;0.30;0.30;;;;;;;;;;6235635;28;20104;-84
2024/01/16 17:26:16;;;;;;;0.30;0.30;;;;;;;;;;6244633;28;20483;-85
2024/01/16 17:29:16;;;;;;;0.30;0.30;;;;;;;;;;6242350;28;20424;-84
2024/01/16 17:32:18;;;;;;;0.30;0.30;;;;;;;;;;6238378;28;20056;-84
2024/01/16 17:35:19;;;;;;;0.30;0.30;;;;;;;;;;6227260;28;20021;-84
2024/01/16 17:38:20;;;;;;;0.30;0.30;;;;;;;;;;6238415;28;20029;-85
2024/01/16 17:41:25;;;;;;;0.30;0.30;;;;;;;;;;6228268;28;20100;-84
2024/01/16 17:44:25;;;;;;;0.30;0.30;;;;;;;;;;6238755;28;20035;-84
2024/01/16 17:47:25;;;;;;;0.30;0.30;;;;;;;;;;6221341;28;20026;-84
2024/01/16 17:50:26;;;;;;;0.40;0.40;;;;;;;;;;6219641;28;20101;-84
2024/01/16 17:53:27;;;;;;;0.40;0.40;;;;;;;;;;6244649;28;20451;-84
2024/01/16 17:56:27;;;;;;;0.30;0.30;;;;;;;;;;6239431;28;20093;-82
2024/01/16 17:59:30;;;;;;;0.40;0.40;;;;;;;;;;6237289;28;20009;-82
2024/01/16 18:02:31;;;;;;;0.50;0.50;;;;;;;;;;6236902;28;20439;-83
2024/01/16 18:05:32;;;;;;;0.30;0.30;;;;;;;;;;6233600;28;20021;-83